Time;durP1;ratioP1;P1;durP2;ratioP2;P2;SDS_P1;SDS_P2;PMS_P1;PMS_P2;Temp;Humidity;BMP_temperature;BMP_pressure;BME280_temperature;BME280_humidity;BME280_pressure;Samples;Min_cycle;Max_cycle;Signal;HPM_P1;HPM_P2
2023/12/02 00:07:40;;;;;;;24.50;8.68;;;7.00;99.90;;;;;;20991754;28;20029;-51
2023/12/02 00:17:42;;;;;;;593.45;33.65;;;7.10;99.90;;;;;;20984119;28;20044;-61
2023/12/02 00:27:43;;;;;;;1087.20;54.17;;;7.10;99.90;;;;;;20991500;28;20087;-51
2023/12/02 00:37:45;;;;;;;1138.65;58.65;;;7.00;99.90;;;;;;20990746;28;20367;-60
2023/12/02 00:47:47;;;;;;;782.15;48.72;;;7.00;99.90;;;;;;21007001;28;20062;-61
2023/12/02 00:57:49;;;;;;;963.92;44.38;;;7.00;99.90;;;;;;20988356;28;20036;-61
2023/12/02 01:07:51;;;;;;;433.45;21.50;;;7.10;99.90;;;;;;21005333;28;20409;-52
2023/12/02 01:17:53;;;;;;;102.07;7.85;;;7.20;99.90;;;;;;20997147;28;20375;-61
2023/12/02 01:27:55;;;;;;;566.58;25.98;;;7.30;99.90;;;;;;21003739;28;20539;-50
2023/12/02 01:37:59;;;;;;;254.32;15.85;;;7.50;99.90;;;;;;21003114;28;20056;-61
2023/12/02 01:48:02;;;;;;;537.78;18.60;;;7.50;99.90;;;;;;21002487;28;20166;-60
2023/12/02 01:58:03;;;;;;;640.78;28.08;;;7.40;99.90;;;;;;21001074;28;20028;-53
2023/12/02 02:08:05;;;;;;;733.92;24.58;;;7.40;99.90;;;;;;21000628;28;20567;-51
2023/12/02 02:18:07;;;;;;;766.63;21.15;;;7.40;99.90;;;;;;20992787;28;20048;-61
2023/12/02 02:28:09;;;;;;;379.83;10.80;;;7.60;99.90;;;;;;20999537;28;20037;-49
2023/12/02 02:38:11;;;;;;;1114.15;31.50;;;7.80;99.90;;;;;;20998116;28;20036;-51
2023/12/02 02:48:14;;;;;;;550.10;18.27;;;7.70;99.90;;;;;;20997284;28;20269;-60
2023/12/02 02:58:16;;;;;;;660.47;22.30;;;7.80;99.90;;;;;;20996646;28;20082;-60
2023/12/02 03:08:18;;;;;;;548.03;19.25;;;7.90;99.90;;;;;;20994618;28;20208;-59
2023/12/02 03:18:19;;;;;;;851.58;28.95;;;7.90;99.90;;;;;;20987531;28;20037;-60
2023/12/02 03:28:24;;;;;;;624.22;25.60;;;7.90;99.90;;;;;;20994257;28;20401;-51
2023/12/02 03:38:26;;;;;;;606.97;27.55;;;7.70;99.90;;;;;;20974894;28;20033;-59
2023/12/02 03:48:28;;;;;;;566.03;26.45;;;7.70;99.90;;;;;;20992545;28;20028;-52
2023/12/02 03:58:30;;;;;;;843.05;35.05;;;7.70;99.90;;;;;;20992272;28;20025;-54
2023/12/02 04:08:32;;;;;;;1042.25;45.67;;;7.60;99.90;;;;;;20991711;28;20406;-53
2023/12/02 04:18:34;;;;;;;1453.45;69.00;;;7.60;99.90;;;;;;20998685;28;20098;-52
2023/12/02 04:28:37;;;;;;;1583.35;66.53;;;7.50;99.90;;;;;;21075926;28;20028;-53
2023/12/02 04:38:42;;;;;;;1268.60;57.83;;;7.30;99.90;;;;;;21073705;28;20043;-48
2023/12/02 04:48:45;;;;;;;256.00;15.15;;;7.20;99.90;;;;;;21073606;28;20036;-60
2023/12/02 04:58:47;;;;;;;638.13;34.50;;;7.10;99.90;;;;;;21030132;28;20486;-50
2023/12/02 05:08:48;;;;;;;16.92;5.93;;;7.00;99.90;;;;;;20982191;28;20041;-58
2023/12/02 05:18:53;;;;;;;899.05;58.70;;;6.70;99.90;;;;;;20981699;28;20040;-52
2023/12/02 05:28:55;;;;;;;1082.07;58.08;;;6.70;99.90;;;;;;20996397;28;20381;-60
2023/12/02 05:39:00;;;;;;;120.78;14.50;;;6.50;99.90;;;;;;21002673;28;20025;-49
2023/12/02 05:49:01;;;;;;;13.18;5.93;;;6.30;99.90;;;;;;21001874;28;20040;-60
2023/12/02 05:59:04;;;;;;;10.13;4.00;;;6.00;99.90;;;;;;21001455;28;20043;-52
2023/12/02 06:09:06;;;;;;;12.07;4.97;;;5.60;99.90;;;;;;21000447;28;20093;-55
2023/12/02 06:19:08;;;;;;;14.35;5.60;;;5.40;99.90;;;;;;20992362;28;20048;-58
2023/12/02 06:29:10;;;;;;;1110.68;55.60;;;5.40;99.90;;;;;;20998887;28;20036;-60
2023/12/02 06:39:12;;;;;;;192.85;15.13;;;5.50;99.90;;;;;;20997707;28;20032;-59
2023/12/02 06:49:14;;;;;;;788.10;40.88;;;5.50;99.90;;;;;;20997236;28;20028;-60
2023/12/02 06:59:16;;;;;;;13.52;5.40;;;5.40;99.90;;;;;;20996613;28;20409;-60
2023/12/02 07:09:18;;;;;;;8.90;3.03;;;5.30;99.90;;;;;;20995409;28;20350;-59
2023/12/02 07:19:20;;;;;;;11.82;3.42;;;5.10;99.90;;;;;;20987464;28;20035;-60
2023/12/02 07:29:21;;;;;;;9.43;2.85;;;5.10;99.90;;;;;;20966191;28;20056;-57
2023/12/02 07:39:23;;;;;;;20.63;3.15;;;5.30;99.90;;;;;;20931202;28;20033;-58
2023/12/02 07:49:28;;;;;;;10.18;2.70;;;5.60;99.90;;;;;;20938444;28;20033;-58
2023/12/02 07:59:32;;;;;;;15.93;2.90;;;5.60;99.90;;;;;;20992868;28;20025;-57
2023/12/02 08:09:34;;;;;;;9.35;2.15;;;5.60;99.90;;;;;;20991577;28;20382;-54
2023/12/02 08:19:35;;;;;;;6.95;1.38;;;5.20;99.90;;;;;;20953159;28;20059;-58
2023/12/02 08:29:40;;;;;;;3.28;1.20;;;5.00;99.90;;;;;;20907285;28;20063;-54
2023/12/02 08:39:42;;;;;;;6.93;1.63;;;5.00;99.90;;;;;;20979054;28;20028;-58
2023/12/02 08:49:44;;;;;;;5.93;1.70;;;4.80;99.90;;;;;;20987088;28;20032;-56
2023/12/02 08:59:45;;;;;;;7.20;2.13;;;4.40;99.90;;;;;;20977704;28;20037;-60
2023/12/02 09:09:47;;;;;;;9.93;1.77;;;4.00;99.90;;;;;;20971219;28;20067;-53
2023/12/02 09:19:55;;;;;;;6.32;1.50;;;4.00;99.90;;;;;;21000627;28;20436;-53
2023/12/02 09:29:57;;;;;;;7.75;1.60;;;3.90;99.90;;;;;;20992227;28;20045;-57
2023/12/02 09:40:20;;;;;;;8.25;1.20;;;4.00;99.90;;;;;;20997769;28;20025;-62
2023/12/02 09:50:28;;;;;;;9.68;1.15;;;4.00;99.90;;;;;;20994530;28;20036;-50
2023/12/02 10:00:37;;;;;;;6.97;0.98;;;4.30;99.90;;;;;;20921588;28;20032;-58
2023/12/02 10:11:18;;;;;;;7.10;1.20;;;4.40;99.90;;;;;;20968489;28;20102;-58
2023/12/02 10:21:21;;;;;;;6.25;1.23;;;4.60;99.90;;;;;;20655473;28;20054;-57
2023/12/02 10:31:28;;;;;;;11.07;1.52;;;4.60;99.90;;;;;;20658012;28;20047;-56
2023/12/02 10:41:43;;;;;;;12.93;2.00;;;4.50;99.90;;;;;;20655038;28;20042;-48
2023/12/02 10:51:49;;;;;;;5.18;1.55;;;4.50;99.90;;;;;;20836196;28;20336;-53
2023/12/02 11:02:18;;;;;;;8.30;2.15;;;4.20;99.90;;;;;;20996742;28;20024;-49
2023/12/02 11:12:41;;;;;;;4.80;0.90;;;4.20;99.90;;;;;;20977970;28;20102;-52
2023/12/02 11:23:03;;;;;;;4.88;1.40;;;4.40;99.90;;;;;;20967172;28;20063;-51
2023/12/02 11:33:29;;;;;;;4.65;1.60;;;4.20;99.90;;;;;;20737585;28;20046;-54
2023/12/02 11:44:17;;;;;;;7.53;1.95;;;4.00;99.90;;;;;;20737695;28;20499;-50
2023/12/02 11:54:30;;;;;;;2.97;1.30;;;4.20;99.90;;;;;;20337772;29;20076;-49
2023/12/02 12:04:53;;;;;;;1003.05;40.65;;;4.30;99.90;;;;;;20437416;28;20046;-47
2023/12/02 12:14:55;;;;;;;0.00;0.00;;;3.90;99.90;;;;;;20636641;28;20038;-50
2023/12/02 12:24:57;;;;;;;0.00;0.00;;;2.30;99.90;;;;;;20943251;28;20057;-49
2023/12/02 12:34:59;;;;;;;0.00;0.00;;;1.50;99.90;;;;;;20994936;28;20032;-50
2023/12/02 12:45:02;;;;;;;0.10;0.00;;;1.20;99.90;;;;;;21007322;28;20385;-49
2023/12/02 12:55:09;;;;;;;0.00;0.00;;;1.00;99.90;;;;;;21006504;28;20028;-48
2023/12/02 13:05:20;;;;;;;0.00;0.00;;;0.80;99.90;;;;;;21003894;28;20037;-54
2023/12/02 13:15:22;;;;;;;0.00;0.00;;;0.80;99.90;;;;;;20996153;28;20559;-51
2023/12/02 13:25:29;;;;;;;0.20;0.00;;;1.00;99.90;;;;;;20930740;28;20170;-51
2023/12/02 13:35:38;;;;;;;0.00;0.00;;;1.00;99.90;;;;;;20962819;28;20029;-54
2023/12/02 13:45:46;;;;;;;0.00;0.00;;;1.00;99.90;;;;;;20940899;28;20028;-52
2023/12/02 13:56:34;;;;;;;0.00;0.00;;;1.20;99.90;;;;;;20919077;28;20032;-51
2023/12/02 14:06:47;;;;;;;0.10;0.00;;;1.30;99.90;;;;;;20588310;28;20082;-50
2023/12/02 14:16:49;;;;;;;0.03;0.00;;;1.20;99.90;;;;;;20616506;28;20050;-53
2023/12/02 14:26:57;;;;;;;0.35;0.03;;;1.20;99.90;;;;;;20648437;28;20042;-49
2023/12/02 14:37:14;;;;;;;0.20;0.10;;;1.10;99.90;;;;;;20938854;28;20094;-50
2023/12/02 14:47:16;;;;;;;0.17;0.00;;;1.10;99.90;;;;;;20928940;28;20075;-53
2023/12/02 14:57:21;;;;;;;0.15;0.10;;;1.10;99.90;;;;;;20936334;28;20036;-54
2023/12/02 15:07:24;;;;;;;0.43;0.10;;;0.90;99.90;;;;;;20960234;28;20040;-52
2023/12/02 15:17:27;;;;;;;0.13;0.10;;;0.80;99.90;;;;;;20950611;28;20102;-54
2023/12/02 15:27:29;;;;;;;0.73;0.10;;;0.90;99.90;;;;;;20991997;28;20134;-51
2023/12/02 15:37:32;;;;;;;0.13;0.10;;;0.90;99.90;;;;;;20991725;28;20024;-52
2023/12/02 15:47:34;;;;;;;0.20;0.10;;;0.80;99.90;;;;;;20986215;28;20032;-52
2023/12/02 15:57:36;;;;;;;0.15;0.10;;;0.80;99.90;;;;;;20983614;28;20035;-51
2023/12/02 16:07:39;;;;;;;0.00;0.00;;;0.70;99.90;;;;;;20990507;28;20398;-52
2023/12/02 16:17:41;;;;;;;0.20;0.10;;;0.70;99.90;;;;;;20981713;28;20048;-52
2023/12/02 16:27:51;;;;;;;0.22;0.13;;;0.70;99.90;;;;;;20981527;28;20079;-54
2023/12/02 16:37:53;;;;;;;0.30;0.10;;;0.70;99.90;;;;;;20990986;28;20082;-49
2023/12/02 16:47:59;;;;;;;0.10;0.10;;;0.80;99.90;;;;;;20984995;28;20424;-51
2023/12/02 16:58:01;;;;;;;0.28;0.20;;;0.80;99.90;;;;;;20990163;28;20025;-54
2023/12/02 17:08:06;;;;;;;0.22;0.10;;;0.70;99.90;;;;;;20989745;28;20138;-54
2023/12/02 17:18:48;;;;;;;0.65;0.20;;;0.60;99.90;;;;;;20973387;28;20048;-48
2023/12/02 17:28:50;;;;;;;0.50;0.20;;;0.40;99.90;;;;;;20882862;28;20464;-53
2023/12/02 17:38:51;;;;;;;0.90;0.40;;;0.40;99.90;;;;;;20838229;28;20042;-49
2023/12/02 17:49:03;;;;;;;0.47;0.20;;;0.40;99.90;;;;;;20917068;28;20036;-50
2023/12/02 17:59:05;;;;;;;0.43;0.22;;;0.40;99.90;;;;;;20918644;28;20433;-50
2023/12/02 18:09:06;;;;;;;0.77;0.30;;;0.30;99.90;;;;;;20858302;28;20049;-52
2023/12/02 18:19:08;;;;;;;0.40;0.20;;;0.10;99.90;;;;;;20915639;28;20041;-50
2023/12/02 18:29:11;;;;;;;0.77;0.30;;;0.00;99.90;;;;;;20916615;28;20025;-54
2023/12/02 18:39:14;;;;;;;0.70;0.30;;;0.00;99.90;;;;;;20915050;28;20033;-49
2023/12/02 18:49:16;;;;;;;0.52;0.30;;;0.00;99.90;;;;;;20915157;28;20029;-51
2023/12/02 18:59:18;;;;;;;0.40;0.30;;;-0.10;99.90;;;;;;20914090;28;20467;-51
2023/12/02 19:09:19;;;;;;;2.38;0.30;;;-0.10;99.90;;;;;;20913381;28;20028;-48
2023/12/02 19:19:21;;;;;;;0.60;0.20;;;-0.20;99.90;;;;;;20940090;28;20048;-52
2023/12/02 19:29:23;;;;;;;1.23;0.45;;;-0.30;99.90;;;;;;20994083;28;20037;-53
2023/12/02 19:39:24;;;;;;;0.77;0.30;;;-0.30;99.90;;;;;;20993331;28;20531;-48
2023/12/02 19:49:30;;;;;;;0.63;0.30;;;-0.30;99.90;;;;;;20992269;28;20028;-51
2023/12/02 19:59:33;;;;;;;0.80;0.20;;;-0.40;99.80;;;;;;20992459;28;20082;-50
2023/12/02 20:09:35;;;;;;;0.47;0.30;;;-0.50;99.90;;;;;;20990978;28;20028;-51
2023/12/02 20:19:37;;;;;;;0.52;0.30;;;-0.60;99.90;;;;;;20986606;28;20539;-48
2023/12/02 20:29:38;;;;;;;0.70;0.30;;;-0.80;99.80;;;;;;20989842;28;20048;-46
2023/12/02 20:39:40;;;;;;;0.40;0.30;;;-0.80;99.90;;;;;;20990217;28;20051;-53
2023/12/02 20:49:42;;;;;;;0.57;0.30;;;-0.80;99.90;;;;;;20989356;28;20033;-52
2023/12/02 20:59:45;;;;;;;0.45;0.30;;;-0.80;99.10;;;;;;20998844;28;20039;-46
2023/12/02 21:09:47;;;;;;;0.47;0.20;;;-0.80;99.30;;;;;;21004968;28;20039;-48
2023/12/02 21:19:48;;;;;;;0.60;0.32;;;-0.70;98.30;;;;;;21003932;28;20044;-49
2023/12/02 21:29:50;;;;;;;1.10;0.50;;;-0.70;99.00;;;;;;20999040;28;20079;-51
2023/12/02 21:39:55;;;;;;;0.90;0.60;;;-0.70;98.40;;;;;;21002238;28;20429;-48
2023/12/02 21:50:02;;;;;;;0.65;0.30;;;-0.90;99.00;;;;;;21002111;28;20047;-49
2023/12/02 22:00:05;;;;;;;0.70;0.40;;;-1.00;99.10;;;;;;20981833;28;20032;-52
2023/12/02 22:10:27;;;;;;;0.60;0.30;;;-1.10;98.20;;;;;;20936718;28;20036;-53
2023/12/02 22:20:29;;;;;;;0.80;0.40;;;-1.20;98.80;;;;;;20981647;28;20386;-53
2023/12/02 22:30:48;;;;;;;0.73;0.40;;;-1.30;98.40;;;;;;20999019;28;20025;-51
2023/12/02 22:40:50;;;;;;;0.90;0.30;;;-1.30;98.10;;;;;;20977083;28;20359;-54
2023/12/02 22:50:53;;;;;;;0.47;0.30;;;-1.40;98.00;;;;;;20991853;28;20035;-49
2023/12/02 23:01:00;;;;;;;0.90;0.30;;;-1.50;97.50;;;;;;20999795;28;20044;-46
2023/12/02 23:11:03;;;;;;;0.40;0.22;;;-1.40;97.20;;;;;;20994693;28;20090;-47
2023/12/02 23:21:08;;;;;;;0.80;0.30;;;-1.50;96.60;;;;;;20973532;28;20099;-55
2023/12/02 23:31:12;;;;;;;0.50;0.30;;;-1.50;96.60;;;;;;20993037;28;20037;-48
2023/12/02 23:41:14;;;;;;;0.60;0.25;;;-1.70;96.00;;;;;;20992756;28;20060;-54
2023/12/02 23:51:16;;;;;;;1.38;0.20;;;-1.70;95.90;;;;;;20992097;28;20032;-48
